MiSS Donna — WDG2382 — position and weather

sailwx.info

Track history (hours):
 
Tides and Currents Weather Stations Pressure Air Temp Water Temp Dewpoint Dewpoint Depression Visibility Wind Speed Wind Dir Waves Ship Positions

MiSS Donna

Owner: OCEAN MARINE BOAT RENTALS,LLC, MORGAN CITY, LA. More information available from US FCC via Universal Licensing System and Coast Guard Vessel Documentation Center.

Last reported at 2015-Aug-02 17:32 UTC. Time now 2015-Aug-02 18:27 UTC.
Position N 39°13' W 076°35'.

Length 21 m; draft 2.7 m.

Type: Towing. MMSI: 367515090.

Date/timePositionNaut miles runAvg speedWind from/ knotsBaromVisibWave heightAir tempDewpointWater temp
2015-Aug-02 17:32N 39°13' W 076°35'0 0.0
2015-Aug-02 16:33N 39°13' W 076°35'0 0.0
2015-Aug-02 15:33N 39°13' W 076°35'0 0.0
2015-Aug-02 14:24N 39°13' W 076°35'0 0.0
2015-Aug-02 13:34N 39°13' W 076°35'0 0.0
2015-Aug-02 12:34N 39°13' W 076°35'0 0.0
2015-Aug-02 11:34N 39°13' W 076°35'0 0.0
2015-Aug-02 10:33N 39°13' W 076°35'0 0.0
2015-Aug-02 09:33N 39°13' W 076°35'0 0.0
2015-Aug-02 08:34N 39°13' W 076°35'0 0.0
2015-Aug-02 07:33N 39°13' W 076°35'0 0.0
2015-Aug-02 06:33N 39°13' W 076°35'0 0.0
2015-Aug-02 05:32N 39°13' W 076°35'0 0.0
2015-Aug-02 04:33N 39°13' W 076°35'0 0.0
2015-Aug-02 03:33N 39°13' W 076°35'0 0.0
2015-Aug-02 02:33N 39°13' W 076°35'0 0.0
2015-Aug-02 01:33N 39°13' W 076°35'0 0.0
2015-Aug-02 00:34N 39°13' W 076°35'0 0.0
2015-Aug-01 23:33N 39°13' W 076°35'0 0.0
2015-Aug-01 22:33N 39°13' W 076°35'0 0.0
2015-Aug-01 21:32N 39°13' W 076°35'0 0.0
2015-Aug-01 20:32N 39°13' W 076°35'0 0.0
2015-Aug-01 19:30N 39°13' W 076°35'0 0.0
2015-Aug-01 18:33N 39°13' W 076°35'0 0.0
2015-Aug-01 17:30N 39°13' W 076°35'0 0.0
2015-Aug-01 16:28N 39°13' W 076°35'0 0.0
2015-Aug-01 15:32N 39°13' W 076°35'0 0.0
2015-Aug-01 14:32N 39°13' W 076°35'0 0.0
2015-Aug-01 13:33N 39°13' W 076°35'0 0.0
2015-Aug-01 12:33N 39°13' W 076°35'0 0.0
2015-Aug-01 11:33N 39°13' W 076°35'0 0.0
2015-Aug-01 10:33N 39°13' W 076°35'0 0.0
2015-Aug-01 09:33N 39°13' W 076°35'0 0.0
2015-Aug-01 08:33N 39°13' W 076°35'0 0.3
2015-Aug-01 07:33N 39°13' W 076°35'5 5.3
2015-Aug-01 06:33N 39°11' W 076°28'6 5.8
2015-Aug-01 05:33N 39°13' W 076°21'7 6.6
2015-Aug-01 04:34N 39°17' W 076°14'7 6.7
2015-Aug-01 03:34N 39°22' W 076°08'6 6.0
2015-Aug-01 02:33N 39°25' W 076°02'6 5.6
2015-Aug-01 01:34N 39°29' W 075°57'5 5.0
2015-Aug-01 00:34N 39°32' W 075°51'4 4.3
2015-Jul-31 23:34N 39°32' W 075°45'4 4.4
2015-Jul-31 22:34N 39°33' W 075°40'5 5.0
2015-Jul-31 21:34N 39°34' W 075°33'7 7.1
2015-Jul-31 20:33N 39°41' W 075°31'8 7.8
2015-Jul-31 19:34N 39°47' W 075°27'7 6.5
2015-Jul-31 18:34N 39°51' W 075°20'5 5.1
2015-Jul-31 17:34N 39°52' W 075°13'4 4.3
2015-Jul-31 16:34N 39°54' W 075°08'1 1.5
2015-Jul-31 15:34N 39°53' W 075°09'9 8.8
2015-Jul-31 14:34N 39°51' W 075°21'9 8.6
2015-Jul-31 13:33N 39°45' W 075°29'8 7.9
2015-Jul-31 12:34N 39°38' W 075°34'5 5.5
2015-Jul-31 11:33N 39°33' W 075°38'9 9.2
2015-Jul-31 10:34N 39°32' W 075°49'8 7.9
2015-Jul-31 09:34N 39°28' W 075°58'7 7.2
2015-Jul-31 08:34N 39°23' W 076°05'7 6.8
2015-Jul-31 07:34N 39°19' W 076°12'6 6.2
2015-Jul-31 06:34N 39°15' W 076°18'6 6.4
2015-Jul-31 05:33N 39°11' W 076°25'7 6.6
2015-Jul-31 04:34N 39°13' W 076°33'1 1.3
2015-Jul-31 03:33N 39°13' W 076°35'0 0.0
2015-Jul-31 02:33N 39°13' W 076°35'0 0.0
2015-Jul-31 01:34N 39°13' W 076°35'0 0.0
2015-Jul-31 00:33N 39°13' W 076°35'0 0.0
2015-Jul-30 23:34N 39°13' W 076°35'0 0.0
2015-Jul-30 22:34N 39°13' W 076°35'0 0.0
2015-Jul-30 21:33N 39°13' W 076°35'0 0.0
2015-Jul-30 20:33N 39°13' W 076°35'0 0.0
2015-Jul-30 19:33N 39°13' W 076°35'0 0.0
2015-Jul-30 18:33N 39°13' W 076°35'2 1.8
2015-Jul-30 17:34N 39°14' W 076°33'2 2.3
2015-Jul-30 16:33N 39°15' W 076°35'0 0.0
2015-Jul-30 15:34N 39°15' W 076°35'0 0.0
2015-Jul-30 14:34N 39°15' W 076°35'0 0.0
2015-Jul-30 13:33N 39°15' W 076°35'1 0.5
2015-Jul-30 12:32N 39°15' W 076°35'1 0.6
2015-Jul-30 11:33N 39°15' W 076°35'1 1.1
2015-Jul-30 10:31N 39°15' W 076°34'2 2.1
2015-Jul-30 09:32N 39°13' W 076°35'0 0.0
2015-Jul-29 16:29N 39°13' W 076°35'0 0.0
2015-Jul-29 15:21N 39°13' W 076°35'0 0.0
2015-Jul-29 11:33N 39°13' W 076°35'0 0.0
2015-Jul-29 09:32N 39°13' W 076°35'0 0.0
2015-Jul-29 08:32N 39°13' W 076°35'0 0.0
2015-Jul-29 07:31N 39°13' W 076°35'0 0.0
2015-Jul-29 06:33N 39°13' W 076°35'0 0.0
2015-Jul-29 05:33N 39°13' W 076°35'0 0.0
2015-Jul-28 04:17N 39°13' W 076°35'0 0.0
2015-Jul-27 17:20N 39°13' W 076°35'0 0.0
2015-Jul-27 16:04N 39°13' W 076°35'0 0.0
2015-Jul-27 15:32N 39°13' W 076°35'0 0.0
2015-Jul-27 14:33N 39°13' W 076°35'0 0.0
2015-Jul-27 13:33N 39°13' W 076°35'0 0.1
2015-Jul-27 12:33N 39°13' W 076°35'2 2.2
2015-Jul-27 11:33N 39°13' W 076°32'2 2.1
2015-Jul-27 10:33N 39°13' W 076°35'0 0.2
2015-Jul-27 09:33N 39°13' W 076°35'0 0.0
2015-Jul-27 08:31N 39°13' W 076°35'0 0.0
2015-Jul-27 07:33N 39°13' W 076°35'0 0.0
2015-Jul-27 06:33N 39°13' W 076°35'0 0.0
2015-Jul-27 05:33N 39°13' W 076°35'0 0.0
2015-Jul-27 04:32N 39°13' W 076°35'0 0.0
2015-Jul-27 03:33N 39°13' W 076°35'0 0.0
2015-Jul-27 02:32N 39°13' W 076°35'0 0.0
2015-Jul-27 01:30N 39°13' W 076°35'0 0.0
2015-Jul-27 00:33N 39°13' W 076°35'0 0.0
2015-Jul-26 23:30N 39°13' W 076°35'0 0.0
2015-Jul-26 22:33N 39°13' W 076°35'0 0.0
2015-Jul-26 21:33N 39°13' W 076°35'0 0.0
2015-Jul-26 20:33N 39°13' W 076°35'0 0.0
2015-Jul-26 19:33N 39°13' W 076°35'0 0.0
2015-Jul-26 18:33N 39°13' W 076°35'0 0.0
2015-Jul-26 17:33N 39°13' W 076°35'0 0.0
2015-Jul-26 16:31N 39°13' W 076°35'0 0.0
2015-Jul-26 15:33N 39°13' W 076°35'0 0.0
2015-Jul-26 14:33N 39°13' W 076°35'0 0.0
2015-Jul-26 13:31N 39°13' W 076°35'0 0.0
2015-Jul-26 12:33N 39°13' W 076°35'0 0.0
2015-Jul-26 11:32N 39°13' W 076°35'0 0.0
2015-Jul-26 10:33N 39°13' W 076°35'0 0.0
2015-Jul-26 09:33N 39°13' W 076°35'0 0.0
2015-Jul-26 08:33N 39°13' W 076°35'0 0.0
2015-Jul-26 07:33N 39°13' W 076°35'0 0.0
2015-Jul-26 06:33N 39°13' W 076°35'0 0.0
2015-Jul-26 05:33N 39°13' W 076°35'0 0.0
2015-Jul-26 04:33N 39°13' W 076°35'0 0.0
2015-Jul-26 03:33N 39°13' W 076°35'0 0.0
2015-Jul-26 02:33N 39°13' W 076°35'0 0.0
2015-Jul-26 01:33N 39°13' W 076°35'0 0.0
2015-Jul-26 00:32N 39°13' W 076°35'0 0.0
2015-Jul-25 23:31N 39°13' W 076°35'0 0.0
2015-Jul-25 22:34N 39°13' W 076°35'0 0.0
2015-Jul-25 21:33N 39°13' W 076°35'0 0.0
2015-Jul-25 20:33N 39°13' W 076°35'0 0.0
2015-Jul-25 19:26N 39°13' W 076°35'0 0.0
2015-Jul-25 18:28N 39°13' W 076°35'0 0.0
2015-Jul-25 17:32N 39°13' W 076°35'0 0.0
2015-Jul-25 16:28N 39°13' W 076°35'0 0.0
2015-Jul-25 15:29N 39°13' W 076°35'0 0.0
2015-Jul-25 12:26N 39°13' W 076°35'0 0.0
2015-Jul-25 11:33N 39°13' W 076°35'0 0.0
2015-Jul-25 10:32N 39°13' W 076°35'0 0.0
2015-Jul-25 09:32N 39°13' W 076°35'0 0.0
2015-Jul-25 08:33N 39°13' W 076°35'0 0.0
2015-Jul-25 07:33N 39°13' W 076°35'0 0.0
2015-Jul-25 06:33N 39°13' W 076°35'0 0.0
2015-Jul-25 05:33N 39°13' W 076°35'0 0.0
2015-Jul-25 04:33N 39°13' W 076°35'0 0.0
2015-Jul-25 03:32N 39°13' W 076°35'0 0.0
2015-Jul-24 21:33N 39°13' W 076°35'0 0.0
2015-Jul-24 18:20N 39°13' W 076°35'0 0.0
2015-Jul-24 17:17N 39°13' W 076°35'0 0.0
2015-Jul-24 12:24N 39°13' W 076°35'0 0.0
2015-Jul-24 09:28N 39°13' W 076°35'0 0.0
2015-Jul-24 08:33N 39°13' W 076°35'0 0.0
2015-Jul-24 07:33N 39°13' W 076°35'0 0.0
2015-Jul-24 06:33N 39°13' W 076°35'0 0.0
2015-Jul-24 05:33N 39°13' W 076°35'0 0.0
2015-Jul-24 04:33N 39°13' W 076°35'  
Track history (hours):
 
Tides and Currents Weather Stations Pressure Air Temp Water Temp Dewpoint Dewpoint Depression Visibility Wind Speed Wind Dir Waves Ship Positions

MiSS Donna

Owner: OCEAN MARINE BOAT RENTALS,LLC, MORGAN CITY, LA. More information available from US FCC via Universal Licensing System and Coast Guard Vessel Documentation Center.

Last reported at 2015-Aug-02 17:32 UTC. Time now 2015-Aug-02 18:27 UTC.
Position N 39°13' W 076°35'.

Length 21 m; draft 2.7 m.

Type: Towing. MMSI: 367515090.

Date/timePositionNaut miles runAvg speedWind from/ knotsBaromVisibWave heightAir tempDewpointWater temp
2015-Aug-02 17:32N 39°13' W 076°35'0 0.0
2015-Aug-02 16:33N 39°13' W 076°35'0 0.0
2015-Aug-02 15:33N 39°13' W 076°35'0 0.0
2015-Aug-02 14:24N 39°13' W 076°35'0 0.0
2015-Aug-02 13:34N 39°13' W 076°35'0 0.0
2015-Aug-02 12:34N 39°13' W 076°35'0 0.0
2015-Aug-02 11:34N 39°13' W 076°35'0 0.0
2015-Aug-02 10:33N 39°13' W 076°35'0 0.0
2015-Aug-02 09:33N 39°13' W 076°35'0 0.0
2015-Aug-02 08:34N 39°13' W 076°35'0 0.0
2015-Aug-02 07:33N 39°13' W 076°35'0 0.0
2015-Aug-02 06:33N 39°13' W 076°35'0 0.0
2015-Aug-02 05:32N 39°13' W 076°35'0 0.0
2015-Aug-02 04:33N 39°13' W 076°35'0 0.0
2015-Aug-02 03:33N 39°13' W 076°35'0 0.0
2015-Aug-02 02:33N 39°13' W 076°35'0 0.0
2015-Aug-02 01:33N 39°13' W 076°35'0 0.0
2015-Aug-02 00:34N 39°13' W 076°35'0 0.0
2015-Aug-01 23:33N 39°13' W 076°35'0 0.0
2015-Aug-01 22:33N 39°13' W 076°35'0 0.0
2015-Aug-01 21:32N 39°13' W 076°35'0 0.0
2015-Aug-01 20:32N 39°13' W 076°35'0 0.0
2015-Aug-01 19:30N 39°13' W 076°35'0 0.0
2015-Aug-01 18:33N 39°13' W 076°35'0 0.0
2015-Aug-01 17:30N 39°13' W 076°35'0 0.0
2015-Aug-01 16:28N 39°13' W 076°35'0 0.0
2015-Aug-01 15:32N 39°13' W 076°35'0 0.0
2015-Aug-01 14:32N 39°13' W 076°35'0 0.0
2015-Aug-01 13:33N 39°13' W 076°35'0 0.0
2015-Aug-01 12:33N 39°13' W 076°35'0 0.0
2015-Aug-01 11:33N 39°13' W 076°35'0 0.0
2015-Aug-01 10:33N 39°13' W 076°35'0 0.0
2015-Aug-01 09:33N 39°13' W 076°35'0 0.0
2015-Aug-01 08:33N 39°13' W 076°35'0 0.3
2015-Aug-01 07:33N 39°13' W 076°35'5 5.3
2015-Aug-01 06:33N 39°11' W 076°28'6 5.8
2015-Aug-01 05:33N 39°13' W 076°21'7 6.6
2015-Aug-01 04:34N 39°17' W 076°14'7 6.7
2015-Aug-01 03:34N 39°22' W 076°08'6 6.0
2015-Aug-01 02:33N 39°25' W 076°02'6 5.6
2015-Aug-01 01:34N 39°29' W 075°57'5 5.0
2015-Aug-01 00:34N 39°32' W 075°51'4 4.3
2015-Jul-31 23:34N 39°32' W 075°45'4 4.4
2015-Jul-31 22:34N 39°33' W 075°40'5 5.0
2015-Jul-31 21:34N 39°34' W 075°33'7 7.1
2015-Jul-31 20:33N 39°41' W 075°31'8 7.8
2015-Jul-31 19:34N 39°47' W 075°27'7 6.5
2015-Jul-31 18:34N 39°51' W 075°20'5 5.1
2015-Jul-31 17:34N 39°52' W 075°13'4 4.3
2015-Jul-31 16:34N 39°54' W 075°08'1 1.5
2015-Jul-31 15:34N 39°53' W 075°09'9 8.8
2015-Jul-31 14:34N 39°51' W 075°21'9 8.6
2015-Jul-31 13:33N 39°45' W 075°29'8 7.9
2015-Jul-31 12:34N 39°38' W 075°34'5 5.5
2015-Jul-31 11:33N 39°33' W 075°38'9 9.2
2015-Jul-31 10:34N 39°32' W 075°49'8 7.9
2015-Jul-31 09:34N 39°28' W 075°58'7 7.2
2015-Jul-31 08:34N 39°23' W 076°05'7 6.8
2015-Jul-31 07:34N 39°19' W 076°12'6 6.2
2015-Jul-31 06:34N 39°15' W 076°18'6 6.4
2015-Jul-31 05:33N 39°11' W 076°25'7 6.6
2015-Jul-31 04:34N 39°13' W 076°33'1 1.3
2015-Jul-31 03:33N 39°13' W 076°35'0 0.0
2015-Jul-31 02:33N 39°13' W 076°35'0 0.0
2015-Jul-31 01:34N 39°13' W 076°35'0 0.0
2015-Jul-31 00:33N 39°13' W 076°35'0 0.0
2015-Jul-30 23:34N 39°13' W 076°35'0 0.0
2015-Jul-30 22:34N 39°13' W 076°35'0 0.0
2015-Jul-30 21:33N 39°13' W 076°35'0 0.0
2015-Jul-30 20:33N 39°13' W 076°35'0 0.0
2015-Jul-30 19:33N 39°13' W 076°35'0 0.0
2015-Jul-30 18:33N 39°13' W 076°35'2 1.8
2015-Jul-30 17:34N 39°14' W 076°33'2 2.3
2015-Jul-30 16:33N 39°15' W 076°35'0 0.0
2015-Jul-30 15:34N 39°15' W 076°35'0 0.0
2015-Jul-30 14:34N 39°15' W 076°35'0 0.0
2015-Jul-30 13:33N 39°15' W 076°35'1 0.5
2015-Jul-30 12:32N 39°15' W 076°35'1 0.6
2015-Jul-30 11:33N 39°15' W 076°35'1 1.1
2015-Jul-30 10:31N 39°15' W 076°34'2 2.1
2015-Jul-30 09:32N 39°13' W 076°35'0 0.0
2015-Jul-29 16:29N 39°13' W 076°35'0 0.0
2015-Jul-29 15:21N 39°13' W 076°35'0 0.0
2015-Jul-29 11:33N 39°13' W 076°35'0 0.0
2015-Jul-29 09:32N 39°13' W 076°35'0 0.0
2015-Jul-29 08:32N 39°13' W 076°35'0 0.0
2015-Jul-29 07:31N 39°13' W 076°35'0 0.0
2015-Jul-29 06:33N 39°13' W 076°35'0 0.0
2015-Jul-29 05:33N 39°13' W 076°35'0 0.0
2015-Jul-28 04:17N 39°13' W 076°35'0 0.0
2015-Jul-27 17:20N 39°13' W 076°35'0 0.0
2015-Jul-27 16:04N 39°13' W 076°35'0 0.0
2015-Jul-27 15:32N 39°13' W 076°35'0 0.0
2015-Jul-27 14:33N 39°13' W 076°35'0 0.0
2015-Jul-27 13:33N 39°13' W 076°35'0 0.1
2015-Jul-27 12:33N 39°13' W 076°35'2 2.2
2015-Jul-27 11:33N 39°13' W 076°32'2 2.1
2015-Jul-27 10:33N 39°13' W 076°35'0 0.2
2015-Jul-27 09:33N 39°13' W 076°35'0 0.0
2015-Jul-27 08:31N 39°13' W 076°35'0 0.0
2015-Jul-27 07:33N 39°13' W 076°35'0 0.0
2015-Jul-27 06:33N 39°13' W 076°35'0 0.0
2015-Jul-27 05:33N 39°13' W 076°35'0 0.0
2015-Jul-27 04:32N 39°13' W 076°35'0 0.0
2015-Jul-27 03:33N 39°13' W 076°35'0 0.0
2015-Jul-27 02:32N 39°13' W 076°35'0 0.0
2015-Jul-27 01:30N 39°13' W 076°35'0 0.0
2015-Jul-27 00:33N 39°13' W 076°35'0 0.0
2015-Jul-26 23:30N 39°13' W 076°35'0 0.0
2015-Jul-26 22:33N 39°13' W 076°35'0 0.0
2015-Jul-26 21:33N 39°13' W 076°35'0 0.0
2015-Jul-26 20:33N 39°13' W 076°35'0 0.0
2015-Jul-26 19:33N 39°13' W 076°35'0 0.0
2015-Jul-26 18:33N 39°13' W 076°35'0 0.0
2015-Jul-26 17:33N 39°13' W 076°35'0 0.0
2015-Jul-26 16:31N 39°13' W 076°35'0 0.0
2015-Jul-26 15:33N 39°13' W 076°35'0 0.0
2015-Jul-26 14:33N 39°13' W 076°35'0 0.0
2015-Jul-26 13:31N 39°13' W 076°35'0 0.0
2015-Jul-26 12:33N 39°13' W 076°35'0 0.0
2015-Jul-26 11:32N 39°13' W 076°35'0 0.0
2015-Jul-26 10:33N 39°13' W 076°35'0 0.0
2015-Jul-26 09:33N 39°13' W 076°35'0 0.0
2015-Jul-26 08:33N 39°13' W 076°35'0 0.0
2015-Jul-26 07:33N 39°13' W 076°35'0 0.0
2015-Jul-26 06:33N 39°13' W 076°35'0 0.0
2015-Jul-26 05:33N 39°13' W 076°35'0 0.0
2015-Jul-26 04:33N 39°13' W 076°35'0 0.0
2015-Jul-26 03:33N 39°13' W 076°35'0 0.0
2015-Jul-26 02:33N 39°13' W 076°35'0 0.0
2015-Jul-26 01:33N 39°13' W 076°35'0 0.0
2015-Jul-26 00:32N 39°13' W 076°35'0 0.0
2015-Jul-25 23:31N 39°13' W 076°35'0 0.0
2015-Jul-25 22:34N 39°13' W 076°35'0 0.0
2015-Jul-25 21:33N 39°13' W 076°35'0 0.0
2015-Jul-25 20:33N 39°13' W 076°35'0 0.0
2015-Jul-25 19:26N 39°13' W 076°35'0 0.0
2015-Jul-25 18:28N 39°13' W 076°35'0 0.0
2015-Jul-25 17:32N 39°13' W 076°35'0 0.0
2015-Jul-25 16:28N 39°13' W 076°35'0 0.0
2015-Jul-25 15:29N 39°13' W 076°35'0 0.0
2015-Jul-25 12:26N 39°13' W 076°35'0 0.0
2015-Jul-25 11:33N 39°13' W 076°35'0 0.0
2015-Jul-25 10:32N 39°13' W 076°35'0 0.0
2015-Jul-25 09:32N 39°13' W 076°35'0 0.0
2015-Jul-25 08:33N 39°13' W 076°35'0 0.0
2015-Jul-25 07:33N 39°13' W 076°35'0 0.0
2015-Jul-25 06:33N 39°13' W 076°35'0 0.0
2015-Jul-25 05:33N 39°13' W 076°35'0 0.0
2015-Jul-25 04:33N 39°13' W 076°35'0 0.0
2015-Jul-25 03:32N 39°13' W 076°35'0 0.0
2015-Jul-24 21:33N 39°13' W 076°35'0 0.0
2015-Jul-24 18:20N 39°13' W 076°35'0 0.0
2015-Jul-24 17:17N 39°13' W 076°35'0 0.0
2015-Jul-24 12:24N 39°13' W 076°35'0 0.0
2015-Jul-24 09:28N 39°13' W 076°35'0 0.0
2015-Jul-24 08:33N 39°13' W 076°35'0 0.0
2015-Jul-24 07:33N 39°13' W 076°35'0 0.0
2015-Jul-24 06:33N 39°13' W 076°35'0 0.0
2015-Jul-24 05:33N 39°13' W 076°35'0 0.0
2015-Jul-24 04:33N 39°13' W 076°35'  

Dump ship's entire track history